Weather at Catania-Fontanarossa Airport

Public forecast

Using degrees Celsius for public forecast. Weather courtesy of forecast.io.

Current aviation weather report (METAR) for Catania-Fontanarossa Airport

2024/05/22 08:20 (retrieved 32 minutes ago)

LICC 220820Z 09005KT 020V140 CAVOK 24/11 Q1016

Aviation forecast (TAF) for Catania-Fontanarossa Airport

2024/05/22 06:00 (retrieved 3 hours ago)

TAF LICC 220500Z 2206/2306 26006KT 9999 FEW040 BECMG 2209/2211 09012KT BECMG 2217/2219 VRB05KT